Springfield, New Jersey
Current Conditions -  °F | °C
As of 4:55 AM on Saturday 25 Oct 2014 (Local Time) from KLDJ Reporting Station
Clear Clear  
Wind Chill: 55°   Ceiling: Unl
Heat Index: 55°   Visibility: 10mi
Dew Point: 39°   Wind: 8mph
Humidity: 55%   Direction: 310°NW
Pressure: 29.89"   Gusts: NA
Location:  40.71°N, 74.31°W
Report Text: KLDJ 250855Z AUTO 31007KT 10SM CLR 13/04 A2989 RMK AO2 T01260037
Loading
Personal Weather Stations






























Interactive Weather Map New forecast layout! Learn more

10-Day Weather Forecast

Advertisements
Track Severe Weather on mobile